sensor_id;sensor_type;location;lat;lon;timestamp;temperature;humidity
28837;DHT22;50669;50.982;11.022;2023-02-22T00:00:53;10.30;99.90
28837;DHT22;50669;50.982;11.022;2023-02-22T00:03:26;10.30;99.90
28837;DHT22;50669;50.982;11.022;2023-02-22T00:05:56;10.30;99.90
28837;DHT22;50669;50.982;11.022;2023-02-22T00:08:28;10.30;99.90
28837;DHT22;50669;50.982;11.022;2023-02-22T00:11:02;10.30;99.90
28837;DHT22;50669;50.982;11.022;2023-02-22T00:13:29;10.30;99.90
28837;DHT22;50669;50.982;11.022;2023-02-22T00:15:56;10.30;99.90
28837;DHT22;50669;50.982;11.022;2023-02-22T00:18:23;10.30;99.90
28837;DHT22;50669;50.982;11.022;2023-02-22T00:20:54;10.40;99.90
28837;DHT22;50669;50.982;11.022;2023-02-22T00:23:21;10.30;99.90
28837;DHT22;50669;50.982;11.022;2023-02-22T00:25:52;10.30;99.90
28837;DHT22;50669;50.982;11.022;2023-02-22T00:28:18;10.30;99.90
28837;DHT22;50669;50.982;11.022;2023-02-22T00:30:44;10.30;99.90
28837;DHT22;50669;50.982;11.022;2023-02-22T00:33:14;10.20;99.90
28837;DHT22;50669;50.982;11.022;2023-02-22T00:35:43;10.20;99.90
28837;DHT22;50669;50.982;11.022;2023-02-22T00:38:14;10.20;99.90
28837;DHT22;50669;50.982;11.022;2023-02-22T00:40:40;10.20;99.90
28837;DHT22;50669;50.982;11.022;2023-02-22T00:43:09;10.20;99.90
28837;DHT22;50669;50.982;11.022;2023-02-22T00:45:38;10.20;99.90
28837;DHT22;50669;50.982;11.022;2023-02-22T00:48:05;10.20;99.90
28837;DHT22;50669;50.982;11.022;2023-02-22T00:50:31;10.10;99.90
28837;DHT22;50669;50.982;11.022;2023-02-22T00:52:59;10.10;99.90
28837;DHT22;50669;50.982;11.022;2023-02-22T00:55:27;10.10;99.90
28837;DHT22;50669;50.982;11.022;2023-02-22T00:57:54;10.10;99.90
28837;DHT22;50669;50.982;11.022;2023-02-22T01:02:50;10.10;99.90
28837;DHT22;50669;50.982;11.022;2023-02-22T01:05:18;10.00;99.90
28837;DHT22;50669;50.982;11.022;2023-02-22T01:07:46;10.00;99.90
28837;DHT22;50669;50.982;11.022;2023-02-22T01:10:16;10.00;99.90
28837;DHT22;50669;50.982;11.022;2023-02-22T01:12:46;10.00;99.90
28837;DHT22;50669;50.982;11.022;2023-02-22T01:15:13;10.00;99.90
28837;DHT22;50669;50.982;11.022;2023-02-22T01:17:39;10.00;99.90
28837;DHT22;50669;50.982;11.022;2023-02-22T01:20:08;9.90;99.90
28837;DHT22;50669;50.982;11.022;2023-02-22T01:22:37;10.00;99.90
28837;DHT22;50669;50.982;11.022;2023-02-22T01:25:07;9.90;99.90
28837;DHT22;50669;50.982;11.022;2023-02-22T01:27:34;9.90;99.90
28837;DHT22;50669;50.982;11.022;2023-02-22T01:30:00;9.90;99.90
28837;DHT22;50669;50.982;11.022;2023-02-22T01:32:26;9.80;99.90
28837;DHT22;50669;50.982;11.022;2023-02-22T01:34:52;9.80;99.90
28837;DHT22;50669;50.982;11.022;2023-02-22T01:37:18;9.80;99.90
28837;DHT22;50669;50.982;11.022;2023-02-22T01:39:44;9.80;99.90
28837;DHT22;50669;50.982;11.022;2023-02-22T01:42:10;9.80;99.90
28837;DHT22;50669;50.982;11.022;2023-02-22T01:44:37;9.80;99.90
28837;DHT22;50669;50.982;11.022;2023-02-22T01:47:07;9.70;99.90
28837;DHT22;50669;50.982;11.022;2023-02-22T01:49:42;9.70;99.90
28837;DHT22;50669;50.982;11.022;2023-02-22T01:52:15;9.70;99.90
28837;DHT22;50669;50.982;11.022;2023-02-22T01:54:53;9.70;99.90
28837;DHT22;50669;50.982;11.022;2023-02-22T01:57:33;9.70;99.90
28837;DHT22;50669;50.982;11.022;2023-02-22T02:00:07;9.60;99.90
28837;DHT22;50669;50.982;11.022;2023-02-22T02:02:38;9.60;99.90
28837;DHT22;50669;50.982;11.022;2023-02-22T02:05:06;9.60;99.90
28837;DHT22;50669;50.982;11.022;2023-02-22T02:07:33;9.60;99.90
28837;DHT22;50669;50.982;11.022;2023-02-22T02:10:03;9.60;99.90
28837;DHT22;50669;50.982;11.022;2023-02-22T02:12:34;9.60;99.90
28837;DHT22;50669;50.982;11.022;2023-02-22T02:17:43;9.50;99.90
28837;DHT22;50669;50.982;11.022;2023-02-22T02:31:25;9.30;99.90
28837;DHT22;50669;50.982;11.022;2023-02-22T02:37:00;9.30;99.90
28837;DHT22;50669;50.982;11.022;2023-02-22T02:42:18;9.30;99.90
28837;DHT22;50669;50.982;11.022;2023-02-22T02:44:54;9.30;99.90
28837;DHT22;50669;50.982;11.022;2023-02-22T02:47:29;9.20;99.90
28837;DHT22;50669;50.982;11.022;2023-02-22T02:50:04;9.10;99.90
28837;DHT22;50669;50.982;11.022;2023-02-22T02:52:32;9.00;99.90
28837;DHT22;50669;50.982;11.022;2023-02-22T02:54:59;8.90;99.90
28837;DHT22;50669;50.982;11.022;2023-02-22T02:57:25;8.80;99.90
28837;DHT22;50669;50.982;11.022;2023-02-22T02:59:54;8.70;99.90
28837;DHT22;50669;50.982;11.022;2023-02-22T03:08:02;8.50;99.90
28837;DHT22;50669;50.982;11.022;2023-02-22T03:27:11;8.30;99.90
28837;DHT22;50669;50.982;11.022;2023-02-22T03:29:41;8.20;99.90
28837;DHT22;50669;50.982;11.022;2023-02-22T03:32:11;8.20;99.90
28837;DHT22;50669;50.982;11.022;2023-02-22T03:35:07;8.10;99.90
28837;DHT22;50669;50.982;11.022;2023-02-22T03:37:36;8.00;99.90
28837;DHT22;50669;50.982;11.022;2023-02-22T03:40:06;8.00;99.90
28837;DHT22;50669;50.982;11.022;2023-02-22T03:42:44;7.90;99.90
28837;DHT22;50669;50.982;11.022;2023-02-22T03:45:12;7.90;99.90
28837;DHT22;50669;50.982;11.022;2023-02-22T03:47:42;7.80;99.90
28837;DHT22;50669;50.982;11.022;2023-02-22T03:50:13;7.80;99.90
28837;DHT22;50669;50.982;11.022;2023-02-22T03:52:41;7.70;99.90
28837;DHT22;50669;50.982;11.022;2023-02-22T03:55:13;7.70;99.90
28837;DHT22;50669;50.982;11.022;2023-02-22T03:57:45;7.70;99.90
28837;DHT22;50669;50.982;11.022;2023-02-22T04:00:15;7.70;99.90
28837;DHT22;50669;50.982;11.022;2023-02-22T04:02:44;7.80;99.90
28837;DHT22;50669;50.982;11.022;2023-02-22T04:05:10;7.80;99.90
28837;DHT22;50669;50.982;11.022;2023-02-22T04:07:39;7.80;99.90
28837;DHT22;50669;50.982;11.022;2023-02-22T04:10:05;7.80;99.90
28837;DHT22;50669;50.982;11.022;2023-02-22T04:12:34;7.80;99.90
28837;DHT22;50669;50.982;11.022;2023-02-22T04:15:03;7.90;99.90
28837;DHT22;50669;50.982;11.022;2023-02-22T04:17:30;7.90;99.90
28837;DHT22;50669;50.982;11.022;2023-02-22T04:19:58;8.00;99.90
28837;DHT22;50669;50.982;11.022;2023-02-22T04:22:24;8.00;99.90
28837;DHT22;50669;50.982;11.022;2023-02-22T04:24:52;8.00;99.90
28837;DHT22;50669;50.982;11.022;2023-02-22T04:27:22;8.10;99.90
28837;DHT22;50669;50.982;11.022;2023-02-22T04:29:48;8.10;99.90
28837;DHT22;50669;50.982;11.022;2023-02-22T04:32:16;8.10;99.90
28837;DHT22;50669;50.982;11.022;2023-02-22T04:34:41;8.10;99.90
28837;DHT22;50669;50.982;11.022;2023-02-22T04:37:09;8.20;99.90
28837;DHT22;50669;50.982;11.022;2023-02-22T04:39:35;8.20;99.90
28837;DHT22;50669;50.982;11.022;2023-02-22T04:42:03;8.20;99.90
28837;DHT22;50669;50.982;11.022;2023-02-22T04:44:31;8.20;99.90
28837;DHT22;50669;50.982;11.022;2023-02-22T04:46:57;8.20;99.90
28837;DHT22;50669;50.982;11.022;2023-02-22T04:49:22;8.20;99.90
28837;DHT22;50669;50.982;11.022;2023-02-22T04:51:48;8.20;99.90
28837;DHT22;50669;50.982;11.022;2023-02-22T04:54:14;8.10;99.90
28837;DHT22;50669;50.982;11.022;2023-02-22T04:56:42;8.10;99.90
28837;DHT22;50669;50.982;11.022;2023-02-22T04:59:10;8.10;99.90
28837;DHT22;50669;50.982;11.022;2023-02-22T05:01:40;8.20;99.90
28837;DHT22;50669;50.982;11.022;2023-02-22T05:04:07;8.30;99.90
28837;DHT22;50669;50.982;11.022;2023-02-22T05:06:33;8.20;99.90
28837;DHT22;50669;50.982;11.022;2023-02-22T05:08:58;8.20;99.90
28837;DHT22;50669;50.982;11.022;2023-02-22T05:11:26;8.30;99.90
28837;DHT22;50669;50.982;11.022;2023-02-22T05:13:54;8.30;99.90
28837;DHT22;50669;50.982;11.022;2023-02-22T05:16:20;8.30;99.90
28837;DHT22;50669;50.982;11.022;2023-02-22T05:18:46;8.30;99.90
28837;DHT22;50669;50.982;11.022;2023-02-22T05:21:12;8.40;99.90
28837;DHT22;50669;50.982;11.022;2023-02-22T05:23:38;8.40;99.90
28837;DHT22;50669;50.982;11.022;2023-02-22T05:26:04;8.40;99.90
28837;DHT22;50669;50.982;11.022;2023-02-22T05:28:31;8.40;99.90
28837;DHT22;50669;50.982;11.022;2023-02-22T05:30:57;8.50;99.90
28837;DHT22;50669;50.982;11.022;2023-02-22T05:33:22;8.40;99.90
28837;DHT22;50669;50.982;11.022;2023-02-22T05:35:52;8.40;99.90
28837;DHT22;50669;50.982;11.022;2023-02-22T05:38:20;8.30;99.90
28837;DHT22;50669;50.982;11.022;2023-02-22T05:40:47;8.30;99.90
28837;DHT22;50669;50.982;11.022;2023-02-22T05:43:13;8.20;99.90
28837;DHT22;50669;50.982;11.022;2023-02-22T05:45:40;8.20;99.90
28837;DHT22;50669;50.982;11.022;2023-02-22T05:48:06;8.10;99.90
28837;DHT22;50669;50.982;11.022;2023-02-22T05:50:32;8.00;99.90
28837;DHT22;50669;50.982;11.022;2023-02-22T05:52:58;8.00;99.90
28837;DHT22;50669;50.982;11.022;2023-02-22T05:55:24;7.90;99.90
28837;DHT22;50669;50.982;11.022;2023-02-22T05:57:50;7.90;99.90
28837;DHT22;50669;50.982;11.022;2023-02-22T06:00:26;7.90;99.90
28837;DHT22;50669;50.982;11.022;2023-02-22T06:02:54;7.90;99.90
28837;DHT22;50669;50.982;11.022;2023-02-22T06:05:22;7.80;99.90
28837;DHT22;50669;50.982;11.022;2023-02-22T06:07:48;7.70;99.90
28837;DHT22;50669;50.982;11.022;2023-02-22T06:10:14;7.70;99.90
28837;DHT22;50669;50.982;11.022;2023-02-22T06:12:39;7.70;99.90
28837;DHT22;50669;50.982;11.022;2023-02-22T06:15:06;7.60;99.90
28837;DHT22;50669;50.982;11.022;2023-02-22T06:17:32;7.60;99.90
28837;DHT22;50669;50.982;11.022;2023-02-22T06:20:03;7.50;99.90
28837;DHT22;50669;50.982;11.022;2023-02-22T06:22:28;7.60;99.90
28837;DHT22;50669;50.982;11.022;2023-02-22T06:24:56;7.50;99.90
28837;DHT22;50669;50.982;11.022;2023-02-22T06:27:24;7.50;99.90
28837;DHT22;50669;50.982;11.022;2023-02-22T06:29:50;7.60;99.90
28837;DHT22;50669;50.982;11.022;2023-02-22T06:32:15;7.50;99.90
28837;DHT22;50669;50.982;11.022;2023-02-22T06:34:41;7.50;99.90
28837;DHT22;50669;50.982;11.022;2023-02-22T06:37:09;7.50;99.90
28837;DHT22;50669;50.982;11.022;2023-02-22T06:39:35;7.50;99.90
28837;DHT22;50669;50.982;11.022;2023-02-22T06:42:00;7.50;99.90
28837;DHT22;50669;50.982;11.022;2023-02-22T06:44:26;7.60;99.90
28837;DHT22;50669;50.982;11.022;2023-02-22T06:46:51;7.60;99.90
28837;DHT22;50669;50.982;11.022;2023-02-22T06:49:18;7.60;99.90
28837;DHT22;50669;50.982;11.022;2023-02-22T06:51:45;7.60;99.90
28837;DHT22;50669;50.982;11.022;2023-02-22T06:54:11;7.70;99.90
28837;DHT22;50669;50.982;11.022;2023-02-22T06:56:36;7.70;99.90
28837;DHT22;50669;50.982;11.022;2023-02-22T06:59:02;7.70;99.90
28837;DHT22;50669;50.982;11.022;2023-02-22T07:01:30;7.70;99.90
28837;DHT22;50669;50.982;11.022;2023-02-22T07:03:56;7.80;99.90
28837;DHT22;50669;50.982;11.022;2023-02-22T07:06:22;7.90;99.90
28837;DHT22;50669;50.982;11.022;2023-02-22T07:08:47;8.00;99.90
28837;DHT22;50669;50.982;11.022;2023-02-22T07:11:16;8.10;99.90
28837;DHT22;50669;50.982;11.022;2023-02-22T07:13:44;8.10;99.90
28837;DHT22;50669;50.982;11.022;2023-02-22T07:16:12;8.10;99.90
28837;DHT22;50669;50.982;11.022;2023-02-22T07:18:40;8.10;99.90
28837;DHT22;50669;50.982;11.022;2023-02-22T07:21:06;8.10;99.90
28837;DHT22;50669;50.982;11.022;2023-02-22T07:23:32;8.10;99.90
28837;DHT22;50669;50.982;11.022;2023-02-22T07:26:01;8.20;99.90
28837;DHT22;50669;50.982;11.022;2023-02-22T07:28:27;8.20;99.90
28837;DHT22;50669;50.982;11.022;2023-02-22T07:30:53;8.20;99.90
28837;DHT22;50669;50.982;11.022;2023-02-22T07:33:21;8.20;99.90
28837;DHT22;50669;50.982;11.022;2023-02-22T07:35:49;8.30;99.90
28837;DHT22;50669;50.982;11.022;2023-02-22T07:38:16;8.40;99.90
28837;DHT22;50669;50.982;11.022;2023-02-22T07:40:43;8.40;99.90
28837;DHT22;50669;50.982;11.022;2023-02-22T07:43:28;8.50;99.90
28837;DHT22;50669;50.982;11.022;2023-02-22T07:45:58;8.60;99.90
28837;DHT22;50669;50.982;11.022;2023-02-22T07:48:28;8.60;99.90
28837;DHT22;50669;50.982;11.022;2023-02-22T07:50:57;8.70;99.90
28837;DHT22;50669;50.982;11.022;2023-02-22T07:53:29;8.70;99.90
28837;DHT22;50669;50.982;11.022;2023-02-22T07:55:59;8.80;99.90
28837;DHT22;50669;50.982;11.022;2023-02-22T07:58:27;8.70;99.90
28837;DHT22;50669;50.982;11.022;2023-02-22T08:00:56;8.80;99.90
28837;DHT22;50669;50.982;11.022;2023-02-22T08:03:26;8.80;99.90
28837;DHT22;50669;50.982;11.022;2023-02-22T08:05:54;8.90;99.90
28837;DHT22;50669;50.982;11.022;2023-02-22T08:08:20;8.80;99.90
28837;DHT22;50669;50.982;11.022;2023-02-22T08:10:49;8.80;99.90
28837;DHT22;50669;50.982;11.022;2023-02-22T08:13:18;8.80;99.90
28837;DHT22;50669;50.982;11.022;2023-02-22T08:15:47;8.80;99.90
28837;DHT22;50669;50.982;11.022;2023-02-22T08:18:16;8.90;99.90
28837;DHT22;50669;50.982;11.022;2023-02-22T08:20:44;9.00;99.90
28837;DHT22;50669;50.982;11.022;2023-02-22T08:23:14;9.00;99.90
28837;DHT22;50669;50.982;11.022;2023-02-22T08:25:40;9.00;99.90
28837;DHT22;50669;50.982;11.022;2023-02-22T08:28:14;9.10;99.90
28837;DHT22;50669;50.982;11.022;2023-02-22T08:30:44;9.10;99.90
28837;DHT22;50669;50.982;11.022;2023-02-22T08:33:13;9.20;99.90
28837;DHT22;50669;50.982;11.022;2023-02-22T08:35:43;9.30;99.90
28837;DHT22;50669;50.982;11.022;2023-02-22T08:38:27;9.40;99.90
28837;DHT22;50669;50.982;11.022;2023-02-22T08:40:53;9.50;99.90
28837;DHT22;50669;50.982;11.022;2023-02-22T08:43:20;9.70;99.90
28837;DHT22;50669;50.982;11.022;2023-02-22T08:45:46;9.80;99.90
28837;DHT22;50669;50.982;11.022;2023-02-22T08:48:12;9.90;99.90
28837;DHT22;50669;50.982;11.022;2023-02-22T08:50:39;10.00;99.90
28837;DHT22;50669;50.982;11.022;2023-02-22T08:53:07;10.10;99.90
28837;DHT22;50669;50.982;11.022;2023-02-22T08:55:37;10.20;99.90
28837;DHT22;50669;50.982;11.022;2023-02-22T08:58:04;10.30;99.90
28837;DHT22;50669;50.982;11.022;2023-02-22T09:00:33;10.50;99.90
28837;DHT22;50669;50.982;11.022;2023-02-22T09:03:04;10.60;99.90
28837;DHT22;50669;50.982;11.022;2023-02-22T09:05:30;10.70;99.90
28837;DHT22;50669;50.982;11.022;2023-02-22T09:07:58;10.70;99.90
28837;DHT22;50669;50.982;11.022;2023-02-22T09:10:27;10.80;99.90
28837;DHT22;50669;50.982;11.022;2023-02-22T09:12:55;10.80;99.90
28837;DHT22;50669;50.982;11.022;2023-02-22T09:15:25;10.90;99.90
28837;DHT22;50669;50.982;11.022;2023-02-22T09:17:52;11.10;99.90
28837;DHT22;50669;50.982;11.022;2023-02-22T09:20:19;11.20;99.90
28837;DHT22;50669;50.982;11.022;2023-02-22T09:22:50;11.30;99.90
28837;DHT22;50669;50.982;11.022;2023-02-22T09:25:17;11.40;99.90
28837;DHT22;50669;50.982;11.022;2023-02-22T09:27:47;11.40;99.90
28837;DHT22;50669;50.982;11.022;2023-02-22T09:30:23;11.50;99.90
28837;DHT22;50669;50.982;11.022;2023-02-22T09:32:51;11.50;99.90
28837;DHT22;50669;50.982;11.022;2023-02-22T09:35:17;11.50;99.90
28837;DHT22;50669;50.982;11.022;2023-02-22T09:37:45;11.60;99.90
28837;DHT22;50669;50.982;11.022;2023-02-22T09:40:16;11.70;99.90
28837;DHT22;50669;50.982;11.022;2023-02-22T09:46:09;11.70;99.90
28837;DHT22;50669;50.982;11.022;2023-02-22T09:49:06;11.80;99.90
28837;DHT22;50669;50.982;11.022;2023-02-22T09:54:23;12.00;99.90
28837;DHT22;50669;50.982;11.022;2023-02-22T09:56:55;12.10;99.90
28837;DHT22;50669;50.982;11.022;2023-02-22T09:59:29;12.20;99.90
28837;DHT22;50669;50.982;11.022;2023-02-22T10:04:51;12.40;99.90
28837;DHT22;50669;50.982;11.022;2023-02-22T10:07:25;12.50;99.90
28837;DHT22;50669;50.982;11.022;2023-02-22T10:09:53;12.70;99.90
28837;DHT22;50669;50.982;11.022;2023-02-22T10:26:44;13.20;99.90
28837;DHT22;50669;50.982;11.022;2023-02-22T10:29:38;13.40;99.90
28837;DHT22;50669;50.982;11.022;2023-02-22T10:32:10;13.50;99.90
28837;DHT22;50669;50.982;11.022;2023-02-22T10:34:44;13.60;99.90
28837;DHT22;50669;50.982;11.022;2023-02-22T10:39:47;13.80;99.90
28837;DHT22;50669;50.982;11.022;2023-02-22T10:42:14;13.80;99.90
28837;DHT22;50669;50.982;11.022;2023-02-22T10:44:42;14.00;99.90
28837;DHT22;50669;50.982;11.022;2023-02-22T10:47:10;14.10;99.90
28837;DHT22;50669;50.982;11.022;2023-02-22T10:49:42;14.40;99.90
28837;DHT22;50669;50.982;11.022;2023-02-22T10:54:45;15.00;99.90
28837;DHT22;50669;50.982;11.022;2023-02-22T10:57:12;15.50;99.90
28837;DHT22;50669;50.982;11.022;2023-02-22T10:59:40;16.30;99.90
28837;DHT22;50669;50.982;11.022;2023-02-22T11:04:52;17.30;99.90
28837;DHT22;50669;50.982;11.022;2023-02-22T11:07:30;17.50;99.90
28837;DHT22;50669;50.982;11.022;2023-02-22T11:10:05;18.00;99.90
28837;DHT22;50669;50.982;11.022;2023-02-22T11:12:35;18.30;99.90
28837;DHT22;50669;50.982;11.022;2023-02-22T11:17:42;19.10;99.90
28837;DHT22;50669;50.982;11.022;2023-02-22T11:20:26;19.50;99.90
28837;DHT22;50669;50.982;11.022;2023-02-22T11:22:59;19.30;99.90
28837;DHT22;50669;50.982;11.022;2023-02-22T11:25:46;19.40;99.90
28837;DHT22;50669;50.982;11.022;2023-02-22T11:28:21;20.80;99.90
28837;DHT22;50669;50.982;11.022;2023-02-22T11:31:07;21.70;99.90
28837;DHT22;50669;50.982;11.022;2023-02-22T11:33:33;22.60;99.90
28837;DHT22;50669;50.982;11.022;2023-02-22T11:36:01;22.90;99.90
28837;DHT22;50669;50.982;11.022;2023-02-22T11:38:30;22.90;98.60
28837;DHT22;50669;50.982;11.022;2023-02-22T11:41:11;22.60;98.10
28837;DHT22;50669;50.982;11.022;2023-02-22T11:43:42;21.40;99.40
28837;DHT22;50669;50.982;11.022;2023-02-22T11:46:27;21.30;99.90
28837;DHT22;50669;50.982;11.022;2023-02-22T12:16:36;20.60;99.30
28837;DHT22;50669;50.982;11.022;2023-02-22T12:21:56;20.90;99.60
28837;DHT22;50669;50.982;11.022;2023-02-22T12:24:30;21.00;99.20
28837;DHT22;50669;50.982;11.022;2023-02-22T12:27:10;21.50;99.40
28837;DHT22;50669;50.982;11.022;2023-02-22T12:29:45;21.90;98.60
28837;DHT22;50669;50.982;11.022;2023-02-22T12:32:38;21.90;97.90
28837;DHT22;50669;50.982;11.022;2023-02-22T12:37:47;22.10;97.00
28837;DHT22;50669;50.982;11.022;2023-02-22T12:45:37;21.50;96.10
28837;DHT22;50669;50.982;11.022;2023-02-22T12:50:49;21.20;96.60
28837;DHT22;50669;50.982;11.022;2023-02-22T12:53:34;21.20;96.80
28837;DHT22;50669;50.982;11.022;2023-02-22T12:56:28;21.20;97.40
28837;DHT22;50669;50.982;11.022;2023-02-22T12:59:00;21.20;96.80
28837;DHT22;50669;50.982;11.022;2023-02-22T13:01:43;20.80;96.90
28837;DHT22;50669;50.982;11.022;2023-02-22T13:04:10;20.70;97.90
28837;DHT22;50669;50.982;11.022;2023-02-22T13:17:57;20.50;97.90
28837;DHT22;50669;50.982;11.022;2023-02-22T13:26:49;20.10;98.30
28837;DHT22;50669;50.982;11.022;2023-02-22T13:29:19;20.00;98.20
28837;DHT22;50669;50.982;11.022;2023-02-22T13:42:47;20.10;96.70
28837;DHT22;50669;50.982;11.022;2023-02-22T13:48:23;20.30;97.30
28837;DHT22;50669;50.982;11.022;2023-02-22T13:53:46;20.50;96.30
28837;DHT22;50669;50.982;11.022;2023-02-22T13:56:17;20.40;96.30
28837;DHT22;50669;50.982;11.022;2023-02-22T14:06:53;19.20;97.50
28837;DHT22;50669;50.982;11.022;2023-02-22T14:09:47;19.10;97.40
28837;DHT22;50669;50.982;11.022;2023-02-22T14:17:47;18.60;99.90
28837;DHT22;50669;50.982;11.022;2023-02-22T14:22:41;18.30;99.90
28837;DHT22;50669;50.982;11.022;2023-02-22T14:25:38;18.10;99.90
28837;DHT22;50669;50.982;11.022;2023-02-22T14:28:08;18.10;99.90
28837;DHT22;50669;50.982;11.022;2023-02-22T14:30:37;18.10;99.90
28837;DHT22;50669;50.982;11.022;2023-02-22T14:36:27;18.00;99.90
28837;DHT22;50669;50.982;11.022;2023-02-22T14:38:53;17.90;99.90
28837;DHT22;50669;50.982;11.022;2023-02-22T14:41:25;17.80;99.90
28837;DHT22;50669;50.982;11.022;2023-02-22T14:43:55;17.80;99.90
28837;DHT22;50669;50.982;11.022;2023-02-22T14:46:25;17.80;99.90
28837;DHT22;50669;50.982;11.022;2023-02-22T14:48:59;17.80;99.90
28837;DHT22;50669;50.982;11.022;2023-02-22T14:51:37;17.90;99.90
28837;DHT22;50669;50.982;11.022;2023-02-22T14:57:19;17.70;99.90
28837;DHT22;50669;50.982;11.022;2023-02-22T15:00:11;17.60;99.90
28837;DHT22;50669;50.982;11.022;2023-02-22T15:02:55;17.60;99.90
28837;DHT22;50669;50.982;11.022;2023-02-22T15:05:25;17.60;99.90
28837;DHT22;50669;50.982;11.022;2023-02-22T15:08:00;17.60;99.90
28837;DHT22;50669;50.982;11.022;2023-02-22T15:13:03;17.50;99.90
28837;DHT22;50669;50.982;11.022;2023-02-22T15:18:34;17.40;99.90
28837;DHT22;50669;50.982;11.022;2023-02-22T15:21:20;17.40;99.90
28837;DHT22;50669;50.982;11.022;2023-02-22T15:26:30;17.10;99.90
28837;DHT22;50669;50.982;11.022;2023-02-22T15:29:00;17.00;99.90
28837;DHT22;50669;50.982;11.022;2023-02-22T15:31:34;16.90;99.90
28837;DHT22;50669;50.982;11.022;2023-02-22T15:34:30;16.90;99.90
28837;DHT22;50669;50.982;11.022;2023-02-22T15:37:01;16.80;99.90
28837;DHT22;50669;50.982;11.022;2023-02-22T15:39:39;16.70;99.90
28837;DHT22;50669;50.982;11.022;2023-02-22T15:42:16;16.60;99.90
28837;DHT22;50669;50.982;11.022;2023-02-22T15:44:50;16.60;99.90
28837;DHT22;50669;50.982;11.022;2023-02-22T15:47:21;16.50;99.90
28837;DHT22;50669;50.982;11.022;2023-02-22T15:52:49;16.40;99.90
28837;DHT22;50669;50.982;11.022;2023-02-22T15:55:19;16.30;99.90
28837;DHT22;50669;50.982;11.022;2023-02-22T15:57:46;16.20;99.90
28837;DHT22;50669;50.982;11.022;2023-02-22T16:00:42;16.20;99.90
28837;DHT22;50669;50.982;11.022;2023-02-22T16:03:11;16.20;99.90
28837;DHT22;50669;50.982;11.022;2023-02-22T16:05:39;16.10;99.90
28837;DHT22;50669;50.982;11.022;2023-02-22T16:08:15;16.10;99.90
28837;DHT22;50669;50.982;11.022;2023-02-22T16:11:08;16.00;99.90
28837;DHT22;50669;50.982;11.022;2023-02-22T16:13:41;15.90;99.90
28837;DHT22;50669;50.982;11.022;2023-02-22T16:18:42;15.70;99.90
28837;DHT22;50669;50.982;11.022;2023-02-22T16:21:18;15.70;99.90
28837;DHT22;50669;50.982;11.022;2023-02-22T16:23:47;15.60;99.90
28837;DHT22;50669;50.982;11.022;2023-02-22T16:29:00;15.50;99.90
28837;DHT22;50669;50.982;11.022;2023-02-22T16:31:29;15.40;99.90
28837;DHT22;50669;50.982;11.022;2023-02-22T16:33:58;15.30;99.90
28837;DHT22;50669;50.982;11.022;2023-02-22T16:39:19;15.20;99.90
28837;DHT22;50669;50.982;11.022;2023-02-22T16:41:47;15.10;99.90
28837;DHT22;50669;50.982;11.022;2023-02-22T16:44:16;15.00;99.90
28837;DHT22;50669;50.982;11.022;2023-02-22T16:46:42;15.00;99.90
28837;DHT22;50669;50.982;11.022;2023-02-22T16:49:13;14.90;99.90
28837;DHT22;50669;50.982;11.022;2023-02-22T16:51:59;14.80;99.90
28837;DHT22;50669;50.982;11.022;2023-02-22T16:54:33;14.80;99.90
28837;DHT22;50669;50.982;11.022;2023-02-22T16:57:02;14.70;99.90
28837;DHT22;50669;50.982;11.022;2023-02-22T16:59:35;14.60;99.90
28837;DHT22;50669;50.982;11.022;2023-02-22T17:02:01;14.60;99.90
28837;DHT22;50669;50.982;11.022;2023-02-22T17:04:32;14.50;99.90
28837;DHT22;50669;50.982;11.022;2023-02-22T17:06:59;14.50;99.90
28837;DHT22;50669;50.982;11.022;2023-02-22T17:09:27;14.40;99.90
28837;DHT22;50669;50.982;11.022;2023-02-22T17:11:53;14.30;99.90
28837;DHT22;50669;50.982;11.022;2023-02-22T17:14:22;14.20;99.90
28837;DHT22;50669;50.982;11.022;2023-02-22T17:16:52;14.10;99.90
28837;DHT22;50669;50.982;11.022;2023-02-22T17:19:20;14.10;99.90
28837;DHT22;50669;50.982;11.022;2023-02-22T17:21:47;13.90;99.90
28837;DHT22;50669;50.982;11.022;2023-02-22T17:24:15;13.90;99.90
28837;DHT22;50669;50.982;11.022;2023-02-22T17:26:44;13.80;99.90
28837;DHT22;50669;50.982;11.022;2023-02-22T17:29:14;13.70;99.90
28837;DHT22;50669;50.982;11.022;2023-02-22T17:31:42;13.60;99.90
28837;DHT22;50669;50.982;11.022;2023-02-22T17:34:08;13.60;99.90
28837;DHT22;50669;50.982;11.022;2023-02-22T17:36:34;13.50;99.90
28837;DHT22;50669;50.982;11.022;2023-02-22T17:39:03;13.40;99.90
28837;DHT22;50669;50.982;11.022;2023-02-22T17:41:30;13.30;99.90
28837;DHT22;50669;50.982;11.022;2023-02-22T17:43:56;13.30;99.90
28837;DHT22;50669;50.982;11.022;2023-02-22T17:46:23;13.20;99.90
28837;DHT22;50669;50.982;11.022;2023-02-22T17:48:50;13.20;99.90
28837;DHT22;50669;50.982;11.022;2023-02-22T17:51:22;13.10;99.90
28837;DHT22;50669;50.982;11.022;2023-02-22T17:53:51;13.10;99.90
28837;DHT22;50669;50.982;11.022;2023-02-22T17:56:19;13.00;99.90
28837;DHT22;50669;50.982;11.022;2023-02-22T17:58:51;13.00;99.90
28837;DHT22;50669;50.982;11.022;2023-02-22T18:01:29;13.00;99.90
28837;DHT22;50669;50.982;11.022;2023-02-22T18:04:00;12.90;99.90
28837;DHT22;50669;50.982;11.022;2023-02-22T18:06:30;12.90;99.90
28837;DHT22;50669;50.982;11.022;2023-02-22T18:09:00;12.90;99.90
28837;DHT22;50669;50.982;11.022;2023-02-22T18:11:27;12.90;99.90
28837;DHT22;50669;50.982;11.022;2023-02-22T18:13:55;12.90;99.90
28837;DHT22;50669;50.982;11.022;2023-02-22T18:16:21;12.80;99.90
28837;DHT22;50669;50.982;11.022;2023-02-22T18:18:47;12.80;99.90
28837;DHT22;50669;50.982;11.022;2023-02-22T18:21:16;12.80;99.90
28837;DHT22;50669;50.982;11.022;2023-02-22T18:23:42;12.60;99.90
28837;DHT22;50669;50.982;11.022;2023-02-22T18:26:17;12.60;99.90
28837;DHT22;50669;50.982;11.022;2023-02-22T18:28:43;12.60;99.90
28837;DHT22;50669;50.982;11.022;2023-02-22T18:31:15;12.60;99.90
28837;DHT22;50669;50.982;11.022;2023-02-22T18:33:42;12.50;99.90
28837;DHT22;50669;50.982;11.022;2023-02-22T18:36:09;12.50;99.90
28837;DHT22;50669;50.982;11.022;2023-02-22T18:38:41;12.50;99.90
28837;DHT22;50669;50.982;11.022;2023-02-22T18:41:12;12.50;99.90
28837;DHT22;50669;50.982;11.022;2023-02-22T18:43:41;12.50;99.90
28837;DHT22;50669;50.982;11.022;2023-02-22T18:46:12;12.50;99.90
28837;DHT22;50669;50.982;11.022;2023-02-22T18:48:38;12.50;99.90
28837;DHT22;50669;50.982;11.022;2023-02-22T18:51:08;12.40;99.90
28837;DHT22;50669;50.982;11.022;2023-02-22T18:53:36;12.40;99.90
28837;DHT22;50669;50.982;11.022;2023-02-22T18:56:04;12.40;99.90